Latest Coastal Weather Observations for Kingscote

IDS60701

Issued at 1:51 am CDT Sunday 22 January 2017 (issued every 10 minutes, with the page automatically refreshed every 10 minutes)

About coastal observations | Map of coastal stations | Coastal observations for SA | Marine services | Other Formats
Station Details ID: 022841 Name: KINGSCOTE AERO Lat: -35.71 Lon: 137.52 Height: 6.23 m
Data from the previous 72 hours. | See also: Recent months at Kingscote
Date/Time
CDT
Temp
°C
Wind Pressure Rain since
9am
mm
Weather Cloud Vis
km
Sea
Height
m
Swell
Dir  Spd
kts
Gust
kts
hPa Trend Height
m
Period
s
Dir
22/01:30am 14.5 S 6 7 1013.5 - 0.0 - - 10 - - - -
22/01:00am 14.6 S 6 7 1013.7 - 0.0 - - 10 - - - -
22/12:30am 14.9 S 5 6 1013.8 - 0.0 - - 10 - - - -
22/12:00am 15.6 SSE 5 6 1013.9 - 0.0 - - 10 - - - -
 
Date/Time
CDT
Temp
°C
Wind Pressure Rain since
9am
mm
Weather Cloud Vis
km
Sea
Height
m
Swell
Dir  Spd
kts
Gust
kts
hPa Trend Height
m
Period
s
Dir
21/11:30pm 16.1 ESE 6 8 1014.0 - 0.0 - - 10 - - - -
21/11:00pm 16.1 ESE 6 8 1014.1 - 0.0 - - 10 - - - -
21/10:30pm 16.2 ESE 7 8 1014.5 - 0.0 - - 10 - - - -
21/10:00pm 16.6 SE 8 11 1014.8 - 0.0 - - 10 - - - -
21/09:30pm 16.9 ESE 8 10 1014.8 - 0.0 - - 10 - - - -
21/09:00pm 17.5 SE 10 13 1014.7 - 0.0 - - 10 - - - -
21/08:30pm 18.2 SE 11 14 1014.8 - 0.0 - - 10 - - - -
21/08:00pm 19.1 SE 12 15 1014.7 - 0.0 - - 10 - - - -
21/07:30pm 19.9 SE 13 17 1014.4 - 0.0 - - 10 - - - -
21/07:00pm 20.7 SSE 13 16 1014.1 - 0.0 - - 10 - - - -
21/06:30pm 21.7 SE 11 14 1013.8 - 0.0 - - 10 - - - -
21/06:00pm 22.0 SE 12 16 1013.7 - 0.0 - - 10 - - - -
21/05:30pm 22.8 SE 12 16 1013.9 - 0.0 - - 10 - - - -
21/05:00pm 22.7 E 11 15 1013.9 - 0.0 - - 10 - - - -
21/04:30pm 23.1 E 11 15 1014.0 - 0.0 - - 10 - - - -
21/04:00pm 23.6 E 8 13 1014.3 - 0.0 - - 10 - - - -
21/03:30pm 23.3 E 9 13 1014.2 - 0.0 - - 10 - - - -
21/03:00pm 23.3 ENE 6 11 1014.4 - 0.0 - - 10 - - - -
21/02:30pm 23.0 ENE 7 11 1014.7 - 0.0 - - 10 - - - -
21/02:00pm 22.5 E 8 12 1014.8 - 0.0 - - 10 - - - -
21/01:30pm 22.6 E 9 13 1014.9 - 0.0 - - 10 - - - -
21/01:00pm 22.0 ENE 8 11 1015.2 - 0.0 - - 10 - - - -
21/12:30pm 22.0 NE 9 14 1015.3 - 0.0 - - 10 - - - -
21/12:00pm 20.8 ENE 9 15 1015.1 - 0.0 - - 10 - - - -
21/11:30am 20.7 ENE 10 16 1015.0 - 0.0 - - 10 - - - -
21/11:00am 20.8 ENE 11 15 1015.2 - 0.0 - - 10 - - - -
21/10:30am 20.5 ENE 11 16 1015.5 - 0.0 - Partly cloudy 10 - - - -
21/10:00am 19.8 E 10 14 1015.7 - 0.0 - Partly cloudy 10 - - - -
21/09:30am 19.6 ENE 9 12 1015.9 - 0.0 - Partly cloudy 10 - - - -
21/09:00am 18.9 E 8 13 1015.9 - 0.0 - Mostly clear 10 - - - -
21/08:30am 16.0 CALM 0 0 1015.5 - 0.0 - - 10 - - - -
21/08:00am 13.6 CALM 0 0 1015.3 - 0.0 - - 10 - - - -
21/07:30am 11.9 CALM 0 0 1014.9 - 0.0 - - 10 - - - -
21/07:00am 10.6 CALM 0 0 1014.6 - 0.0 - - 10 - - - -
21/06:30am 9.5 CALM 0 0 1014.6 - 0.0 - - 10 - - - -
21/06:00am 9.6 CALM 0 0 1014.3 - 0.0 - - 10 - - - -
21/05:30am 10.1 CALM 0 0 1014.1 - 0.0 - - 10 - - - -
21/05:00am 10.6 CALM 0 0 1013.9 - 0.0 - - 10 - - - -
21/04:30am 10.6 CALM 0 0 1013.6 - 0.0 - - 10 - - - -
21/04:00am 10.5 CALM 0 0 1013.7 - 0.0 - - 10 - - - -
21/03:30am 10.7 CALM 0 0 1013.6 - 0.0 - Partly cloudy 10 - - - -
21/03:00am 10.8 CALM 0 0 1013.8 - 0.0 - Partly cloudy 10 - - - -
21/02:30am 11.6 CALM 0 3 1013.8 - 0.0 - - 10 - - - -
21/02:00am 11.3 SW 4 4 1013.7 - 0.0 - - 10 - - - -
21/01:30am 11.8 SW 4 4 1014.0 - 0.0 - - 10 - - - -
21/01:00am 12.0 SW 3 4 1013.9 - 0.0 - - 10 - - - -
21/12:30am 12.7 SW 4 4 1013.7 - 0.0 - - 10 - - - -
21/12:00am 13.0 SW 4 4 1013.5 - 0.0 - - 10 - - - -
 
Date/Time
CDT
Temp
°C
Wind Pressure Rain since
9am
mm
Weather Cloud Vis
km
Sea
Height
m
Swell
Dir  Spd
kts
Gust
kts
hPa Trend Height
m
Period
s
Dir
20/11:30pm 13.2 SSW 5 5 1013.4 - 0.0 - - 10 - - - -
20/11:00pm 13.3 SSW 6 6 1013.2 - 0.0 - - 10 - - - -
20/10:30pm 13.7 SSW 5 6 1012.9 - 0.0 - - 10 - - - -
20/10:00pm 14.5 S 5 6 1012.6 - 0.0 - - 10 - - - -
20/09:30pm 15.2 S 6 8 1012.4 - 0.0 - - 10 - - - -
20/09:00pm 16.1 SSE 8 9 1012.0 - 0.0 - - 10 - - - -
20/08:30pm 16.8 SSE 9 11 1011.6 - 0.0 - - 10 - - - -
20/08:00pm 17.6 SE 11 15 1011.3 - 0.0 - Partly cloudy 10 - - - -
20/07:30pm 18.1 SSE 12 16 1010.9 - 0.0 - - 10 - - - -
20/07:00pm 18.6 SE 12 16 1010.4 - 0.0 - Partly cloudy 10 - - - -
20/06:30pm 19.0 SE 10 15 1010.1 - 0.0 - Partly cloudy 10 - - - -
20/06:00pm 19.6 SSE 12 15 1009.9 - 0.0 - Partly cloudy 10 - - - -
20/05:30pm 19.6 SSE 13 17 1009.9 - 0.0 - Cloudy 10 - - - -
20/05:00pm 20.7 SE 11 17 1009.8 - 0.0 - Cloudy 10 - - - -
20/04:30pm 21.6 SW 14 19 1009.8 - 0.0 - Partly cloudy 10 - - - -
20/04:00pm 21.6 SW 15 20 1009.6 - 0.0 - Partly cloudy 10 - - - -
20/03:30pm 21.7 S 13 19 1009.4 - 0.0 - Cloudy 10 - - - -
20/03:00pm 21.0 SSE 13 18 1009.2 - 0.0 - Mostly cloudy 10 - - - -
20/02:30pm 21.7 S 13 18 1009.0 - 0.0 - Cloudy 10 - - - -
20/02:00pm 20.7 S 13 18 1009.0 - 0.0 - Cloudy 10 - - - -
20/01:30pm 21.1 S 15 19 1008.9 - 0.0 - Cloudy 10 - - - -
20/01:00pm 20.5 SSE 14 19 1008.7 - 0.0 - Cloudy 10 - - - -
20/12:30pm 20.5 SSE 16 21 1008.4 - 0.0 - Cloudy 10 - - - -
20/12:00pm 20.6 SSE 17 23 1008.0 - 0.0 - Mostly cloudy 10 - - - -
20/11:30am 20.7 SSE 16 23 1007.7 - 0.0 - Partly cloudy 10 - - - -
20/11:00am 19.9 S 17 22 1007.5 - 0.0 - Partly cloudy 10 - - - -
20/10:30am 18.1 SSW 20 25 1007.6 - 0.0 - Cloudy 10 - - - -
20/10:00am 18.3 S 17 25 1007.3 - 0.0 - Partly cloudy 10 - - - -
20/09:30am 18.2 S 19 28 1006.7 - 0.0 - Partly cloudy 10 - - - -
20/09:00am 17.4 S 17 21 1006.6 - 12.6 - Mostly cloudy 10 - - - -
20/08:30am 16.4 S 15 20 1006.1 - 12.6 - Cloudy 10 - - - -
20/08:00am 15.9 SSW 12 18 1005.3 - 12.6 - Partly cloudy 10 - - - -
20/07:30am 15.9 SSW 14 19 1004.7 - 12.6 - Partly cloudy 10 - - - -
20/07:00am 15.4 SSW 11 16 1003.9 - 12.6 - Partly cloudy - - - - -
20/06:35am 15.5 SSW 12 17 1003.4 - 12.6 - Partly cloudy - - - - -
20/06:30am 15.6 SSW 12 16 1003.3 - 12.6 - Partly cloudy - - - - -
20/06:00am 15.9 SSW 10 15 1003.0 - 12.6 - Cloudy - - - - -
20/05:53am 15.8 SSW 10 14 1002.8 - 12.6 - Partly cloudy - - - - -
20/05:35am 15.8 SSW 12 19 1002.6 - 12.6 - Partly cloudy - - - - -
20/05:30am 15.8 SSW 13 19 1002.5 - 12.6 - Partly cloudy - - - - -
20/05:00am 16.0 SSW 17 23 1002.0 - 12.6 - Partly cloudy - - - - -
20/04:47am 16.5 SSW 14 20 1001.5 - 12.6 - Partly cloudy - - - - -
20/04:43am 16.5 SSW 15 20 1001.4 - 12.6 - Partly cloudy - - - - -
20/04:30am 16.6 SSW 15 23 1001.2 - 12.6 - Partly cloudy - - - - -
20/04:00am 16.8 SW 11 15 1000.9 - 12.6 - Cloudy - - - - -
20/03:30am 16.7 SW 12 15 1000.5 - 12.6 - Cloudy - - - - -
20/03:00am 17.1 WSW 8 11 1000.3 - 12.6 - Mostly cloudy - - - - -
20/02:30am 16.9 W 5 7 999.4 - 12.6 - Partly cloudy - - - - -
20/02:00am 16.7 WSW 5 7 999.8 - 12.6 - Partly cloudy - - - - -
20/01:30am 16.8 SSW 9 11 999.7 - 12.6 - Cloudy - - - - -
20/01:00am 16.9 W 3 6 999.4 - 12.6 - Cloudy - - - - -
20/12:30am 16.5 SSE 4 6 999.5 - 12.4 - Cloudy - - - - -
20/12:00am 16.5 ESE 7 9 999.0 - 12.0 Rain Cloudy - - - - -
 
Date/Time
CDT
Temp
°C
Wind Pressure Rain since
9am
mm
Weather Cloud Vis
km
Sea
Height
m
Swell
Dir  Spd
kts
Gust
kts
hPa Trend Height
m
Period
s
Dir
19/11:30pm 16.0 SE 11 16 999.8 - 10.4 - Partly cloudy - - - - -
19/11:07pm 15.9 SSE 15 22 1000.9 - 8.8 - Partly cloudy - - - - -
19/11:05pm 16.0 SSE 16 22 1001.2 - 8.8 - Partly cloudy - - - - -
19/11:00pm 16.1 S 16 23 1000.8 - 8.4 - Partly cloudy - - - - -
19/10:37pm 16.5 S 20 31 1001.0 - 6.6 - Cloudy - - - - -
19/10:30pm 17.0 S 19 27 1001.2 - 6.6 - Cloudy - - - - -
19/10:00pm 17.0 S 19 25 1001.2 - 6.6 - Partly cloudy - - - - -
19/09:49pm 17.0 S 17 23 1000.8 - 6.6 - Partly cloudy - - - - -
19/09:30pm 17.1 S 16 23 1000.9 - 6.6 - Partly cloudy - - - - -
19/09:00pm 18.3 SSW 15 22 1001.7 - 5.2 Rain Cloudy - - - - -
19/08:39pm 19.2 WSW 9 14 1002.4 - 2.4 - Partly cloudy - - - - -
19/08:30pm 19.1 SW 12 18 1000.4 - 2.2 - Partly cloudy - - - - -
19/08:00pm 19.8 SW 10 14 998.7 - 2.2 - Partly cloudy 6 - - - -
19/07:54pm 20.2 SW 12 20 998.3 - 2.0 - Partly cloudy 5 - - - -
19/07:44pm 21.8 SSW 11 19 997.7 - 0.4 - Partly cloudy 10 - - - -
19/07:30pm 22.5 SSE 7 9 996.4 - 0.4 - Partly cloudy 10 - - - -
19/07:00pm 23.5 SSE 8 11 996.9 - 0.2 - Partly cloudy 10 - - - -
19/06:30pm 26.4 SE 11 14 997.0 - 0.0 - Partly cloudy 10 - - - -
19/06:00pm 29.4 ESE 8 11 997.8 - 0.0 - Partly cloudy 10 - - - -
19/05:30pm 30.1 E 7 10 998.5 - 0.0 - - 10 - - - -
19/05:00pm 28.8 ENE 10 14 999.2 - 0.0 - - 10 - - - -
19/04:30pm 29.1 ENE 10 13 1000.1 - 0.0 - - 10 - - - -
19/04:00pm 27.8 ENE 10 14 1001.0 - 0.0 - - 10 - - - -
19/03:30pm 28.5 NE 10 14 1002.3 - 0.0 - - 10 - - - -
19/03:00pm 27.6 ENE 8 14 1003.2 - 0.0 - Mostly clear 10 - - - -
19/02:30pm 26.3 E 7 15 1004.1 - 0.0 - Partly cloudy 10 - - - -
19/02:00pm 25.6 ENE 8 12 1005.2 - 0.0 - - 10 - - - -
19/01:30pm 25.0 E 9 13 1005.8 - 0.0 - - 10 - - - -
19/01:00pm 23.2 E 8 13 1006.5 - 0.0 - - 10 - - - -
19/12:30pm 22.5 E 7 11 1007.3 - 0.0 - - 10 - - - -
19/12:00pm 20.8 ESE 8 11 1007.6 - 0.0 - Cloudy 10 - - - -
19/11:30am 20.3 SE 8 11 1008.1 - 0.0 - - 10 - - - -
19/11:00am 19.1 SE 7 9 1008.5 - 0.0 - Partly cloudy 10 - - - -
19/10:30am 18.9 ESE 8 9 1008.6 - 0.0 - Partly cloudy 10 - - - -
19/10:00am 18.5 E 11 14 1008.7 - 0.0 - Partly cloudy 10 - - - -
19/09:30am 20.1 E 8 11 1009.8 - 0.0 - Cloudy 10 - - - -
19/09:00am 19.5 E 9 11 1010.0 - 0.0 - Cloudy 10 - - - -
19/08:30am 18.9 ESE 9 13 1009.9 - 0.0 - Cloudy 10 - - - -
19/08:00am 18.8 ESE 7 10 1010.1 - 0.0 - Partly cloudy 10 - - - -
19/07:30am 17.6 ESE 8 11 1010.1 - 0.0 - Cloudy 10 - - - -
19/07:00am 16.5 SSE 5 7 1010.5 - 0.0 - Cloudy 10 - - - -
19/06:30am 15.7 SE 6 8 1010.7 - 0.0 - Partly cloudy 10 - - - -
19/06:00am 15.3 SE 6 7 1010.8 - 0.0 - - 10 - - - -
19/05:30am 15.4 SE 6 8 1010.8 - 0.0 - - 10 - - - -
19/05:00am 15.4 ESE 6 8 1010.7 - 0.0 - - 10 - - - -
19/04:30am 15.5 SE 6 8 1011.0 - 0.0 - - 10 - - - -
19/04:00am 16.0 ESE 7 10 1011.4 - 0.0 - - 10 - - - -
19/03:30am 16.0 ESE 9 11 1011.7 - 0.0 - - 10 - - - -
19/03:00am 16.3 ESE 11 16 1011.9 - 0.0 - Mostly clear 10 - - - -
19/02:30am 16.4 ESE 11 16 1012.4 - 0.0 - Partly cloudy 10 - - - -
19/02:00am 16.2 SE 10 15 1012.9 - 0.0 - Partly cloudy 10 - - - -

Other Formats:

Comma delimited format used in spreadsheet applications
http://www.bom.gov.au/fwo/IDS60701/IDS60701.95807.axf

JavaScript Object Notation format (JSON) in row-major order
http://www.bom.gov.au/fwo/IDS60701/IDS60701.95807.json